Allen, Michigan
Current Conditions -  °F | °C
As of 8:15 AM on Wednesday 22 Oct 2014 (Local Time) from KJYM Reporting Station
Overcast Overcast  
Wind Chill: 40°   Ceiling: 1900
Heat Index: 40°   Visibility: 10mi
Dew Point: 38°   Wind: 3mph
Humidity: 91%   Direction: 350°N
Pressure: 30.31"   Gusts: NA
Location:  41.96°N, 84.77°W
Report Text: KJYM 221215Z AUTO 35003KT 10SM OVC019 05/03 A3031 RMK AO2 T00470034
Loading
Personal Weather Stations






























Interactive Weather Map
Tropical Storm Tracking
New forecast layout! Learn more

10-Day Weather Forecast

Advertisements
Track Severe Weather on mobile